Time;durP1;ratioP1;P1;durP2;ratioP2;P2;SDS_P1;SDS_P2;PMS_P1;PMS_P2;Temp;Humidity;BMP_temperature;BMP_pressure;BME280_temperature;BME280_humidity;BME280_pressure;Samples;Min_cycle;Max_cycle;Signal;HPM_P1;HPM_P2
2022/11/03 00:02:05;;;;;;;23.83;16.27;;;;;;;9.20;81.16;99851.62;1702421;83;20983;-91
2022/11/03 00:04:32;;;;;;;26.25;18.40;;;;;;;9.12;81.49;99842.30;1709029;80;21352;-87
2022/11/03 00:07:01;;;;;;;27.62;18.90;;;;;;;9.03;81.81;99836.10;1707138;82;21057;-90
2022/11/03 00:09:30;;;;;;;24.35;16.32;;;;;;;8.95;82.20;99834.73;1681981;83;21045;-87
2022/11/03 00:11:58;;;;;;;26.75;17.27;;;;;;;8.96;82.31;99833.73;1675391;84;21005;-89
2022/11/03 00:14:24;;;;;;;26.52;18.10;;;;;;;9.06;82.32;99834.48;1692672;83;21025;-87
2022/11/03 00:16:52;;;;;;;26.02;18.67;;;;;;;9.04;82.48;99840.43;1689564;82;22461;-87
2022/11/03 00:19:18;;;;;;;28.65;18.42;;;;;;;9.00;82.78;99836.40;1749686;79;21016;-87
2022/11/03 00:21:45;;;;;;;30.88;18.95;;;;;;;8.97;82.88;99840.20;1736154;81;20998;-84
2022/11/03 00:24:12;;;;;;;28.62;18.67;;;;;;;8.93;82.96;99834.88;1731797;81;21078;-88
2022/11/03 00:26:40;;;;;;;27.00;18.62;;;;;;;8.98;82.99;99847.65;1724413;83;21138;-84
2022/11/03 00:29:10;;;;;;;25.92;19.20;;;;;;;9.08;82.88;99844.42;1724060;81;21187;-88
2022/11/03 00:31:40;;;;;;;26.25;19.30;;;;;;;9.06;83.06;99851.70;1697849;82;21117;-88
2022/11/03 00:34:07;;;;;;;29.12;18.60;;;;;;;9.02;83.23;99841.91;1671200;83;21196;-89
2022/11/03 00:36:42;;;;;;;27.73;17.82;;;;;;;8.96;83.32;99837.70;1677238;84;21035;-83
2022/11/03 00:39:08;;;;;;;24.37;17.42;;;;;;;8.92;83.40;99843.80;1682125;83;21061;-88
2022/11/03 00:41:36;;;;;;;27.85;18.40;;;;;;;9.02;83.27;99844.55;1664252;84;21976;-85
2022/11/03 00:44:03;;;;;;;30.65;19.40;;;;;;;9.04;83.35;99847.87;1677513;84;21029;-88
2022/11/03 00:46:34;;;;;;;28.83;19.50;;;;;;;8.98;83.73;99841.02;1648911;85;21036;-85
2022/11/03 00:49:00;;;;;;;27.48;17.80;;;;;;;8.85;83.93;99834.33;1685443;83;21471;-84
2022/11/03 00:51:29;;;;;;;28.45;19.12;;;;;;;8.81;84.08;99830.33;1666760;84;21078;-85
2022/11/03 00:54:00;;;;;;;30.48;20.62;;;;;;;8.84;84.10;99828.67;1651920;85;21106;-85
2022/11/03 00:56:37;;;;;;;30.75;20.20;;;;;;;8.80;84.29;99826.00;1690700;83;21005;-85
2022/11/03 00:59:04;;;;;;;26.52;19.30;;;;;;;8.76;84.59;99833.09;1671230;84;21061;-86
2022/11/03 01:01:39;;;;;;;27.95;18.67;;;;;;;8.71;84.78;99838.88;1691667;83;21131;-86
2022/11/03 01:06:53;;;;;;;27.37;19.00;;;;;;;8.88;84.63;99831.03;1679171;84;21134;-89
2022/11/03 01:15:33;;;;;;;27.87;18.35;;;;;;;8.78;85.01;99826.65;1705114;80;21657;-81
2022/11/03 01:18:29;;;;;;;27.87;19.62;;;;;;;8.85;84.86;99826.37;1671028;84;20858;-92
2022/11/03 01:24:04;;;;;;;31.68;21.15;;;;;;;8.88;84.93;99839.80;1677849;82;21039;-89
2022/11/03 01:26:32;;;;;;;30.27;20.27;;;;;;;8.82;85.10;99844.40;1640185;82;21538;-86
2022/11/03 01:29:01;;;;;;;26.27;18.85;;;;;;;8.81;85.29;99846.72;1644806;85;21089;-90
2022/11/03 01:31:29;;;;;;;30.57;19.00;;;;;;;8.89;85.08;99836.68;1643720;87;21041;-88
2022/11/03 01:33:56;;;;;;;30.20;20.72;;;;;;;9.00;84.76;99838.58;1630508;87;21289;-90
2022/11/03 01:36:24;;;;;;;28.35;19.90;;;;;;;8.99;84.71;99835.58;1615815;87;21083;-82
2022/11/03 01:38:51;;;;;;;27.75;21.73;;;;;;;8.95;84.87;99840.03;1614336;87;21562;-82
2022/11/03 01:41:21;;;;;;;27.32;20.77;;;;;;;8.91;85.01;99836.86;1583172;89;21132;-83
2022/11/03 01:44:12;;;;;;;27.70;19.60;;;;;;;8.90;85.15;99836.50;1582881;89;21533;-82
2022/11/03 01:46:54;;;;;;;26.33;19.20;;;;;;;9.00;84.95;99838.58;1580785;90;21223;-83
2022/11/03 01:49:41;;;;;;;30.37;20.57;;;;;;;9.06;84.77;99830.50;1557529;90;21060;-84
2022/11/03 01:52:24;;;;;;;24.67;19.15;;;;;;;9.01;84.95;99824.83;1579200;89;21084;-86
2022/11/03 01:54:54;;;;;;;;;;;;;;;8.90;85.09;99815.30;1581048;90;21090;-83
2022/11/03 01:57:26;;;;;;;26.85;19.42;;;;;;;8.97;85.12;99830.11;1582666;88;20164;-81
2022/11/03 01:59:53;;;;;;;28.10;19.25;;;;;;;9.06;85.05;99838.45;1591019;88;21153;-84
2022/11/03 02:02:21;;;;;;;28.25;20.95;;;;;;;9.08;85.09;99836.95;1583691;89;21109;-81
2022/11/03 02:04:48;;;;;;;29.50;22.52;;;;;;;9.05;85.13;99828.83;1586016;88;21620;-82
2022/11/03 02:07:26;;;;;;;27.50;20.12;;;;;;;9.01;85.22;99824.33;1586060;89;21056;-84
2022/11/03 02:09:53;;;;;;;28.83;19.48;;;;;;;9.02;85.35;99819.84;1583378;88;21107;-81
2022/11/03 02:12:21;;;;;;;33.55;20.37;;;;;;;9.08;85.24;99821.90;1561325;89;21315;-84
2022/11/03 02:14:55;;;;;;;28.32;21.10;;;;;;;9.02;85.39;99823.35;1578314;88;21088;-84
2022/11/03 02:17:22;;;;;;;30.80;20.48;;;;;;;8.99;85.67;99824.16;1588410;88;21119;-85
2022/11/03 02:20:14;;;;;;;26.90;18.32;;;;;;;8.94;85.81;99818.48;1565851;90;21610;-82
2022/11/03 02:23:07;;;;;;;30.60;19.12;;;;;;;9.00;85.83;99817.37;1586376;89;21112;-81
2022/11/03 02:25:46;;;;;;;31.33;20.08;;;;;;;9.11;85.62;99816.27;1585710;89;21518;-83
2022/11/03 02:28:18;;;;;;;29.50;20.45;;;;;;;9.09;85.65;99818.25;1626021;85;21021;-83
2022/11/03 02:31:11;;;;;;;33.42;21.33;;;;;;;9.04;85.84;99816.58;1645033;86;21592;-83
2022/11/03 02:34:04;;;;;;;27.02;19.92;;;;;;;9.02;85.95;99814.55;1645161;85;21081;-84
2022/11/03 02:36:51;;;;;;;33.05;24.02;;;;;;;9.05;85.83;99817.72;1646254;86;21366;-82
2022/11/03 02:39:46;;;;;;;31.30;22.67;;;;;;;9.11;85.77;99812.80;1622873;87;21120;-83
2022/11/03 02:42:13;;;;;;;28.87;21.05;;;;;;;9.06;85.84;99813.28;1700983;84;21047;-83
2022/11/03 02:44:41;;;;;;;27.17;20.32;;;;;;;8.97;86.14;99812.88;1694272;84;21064;-83
2022/11/03 02:47:10;;;;;;;27.65;19.57;;;;;;;9.03;86.11;99809.09;1679791;83;21060;-82
2022/11/03 02:49:49;;;;;;;26.62;19.62;;;;;;;9.07;86.15;99809.63;1675212;84;21039;-82
2022/11/03 02:52:39;;;;;;;29.05;19.07;;;;;;;9.03;86.43;99817.05;1675746;84;21243;-82
2022/11/03 02:55:30;;;;;;;26.25;18.55;;;;;;;8.96;86.79;99808.55;1657405;84;21036;-84
2022/11/03 02:58:23;;;;;;;27.02;19.40;;;;;;;9.02;86.97;99810.58;1677604;84;20984;-84
2022/11/03 03:01:05;;;;;;;26.35;18.75;;;;;;;9.08;87.10;99809.13;1679052;80;21472;-84
2022/11/03 03:03:47;;;;;;;25.97;19.25;;;;;;;9.05;87.92;99807.62;1672249;84;21059;-83
2022/11/03 03:06:27;;;;;;;30.10;20.85;;;;;;;9.00;88.10;99802.80;1676821;84;21533;-83
2022/11/03 03:08:57;;;;;;;28.10;20.45;;;;;;;9.07;88.19;99800.84;1677953;84;21614;-84
2022/11/03 03:11:36;;;;;;;31.80;21.00;;;;;;;9.09;88.38;99801.02;1679592;83;21087;-83
2022/11/03 03:14:12;;;;;;;31.48;21.80;;;;;;;9.05;88.66;99803.65;1678768;84;21108;-83
2022/11/03 03:16:51;;;;;;;33.48;21.48;;;;;;;8.97;89.36;99799.12;1673519;84;21036;-85
2022/11/03 03:19:23;;;;;;;31.57;22.82;;;;;;;8.98;89.97;99798.16;1676822;84;22133;-83
2022/11/03 03:21:52;;;;;;;32.23;22.48;;;;;;;9.05;89.95;99796.52;1677201;84;21080;-82
2022/11/03 03:24:29;;;;;;;32.48;23.35;;;;;;;9.01;90.26;99795.17;1676079;84;21092;-81
2022/11/03 03:26:58;;;;;;;34.63;23.05;;;;;;;8.94;90.76;99793.31;1645107;86;21083;-82
2022/11/03 03:29:29;;;;;;;30.52;21.12;;;;;;;8.90;91.08;99795.44;1646025;85;21052;-85
2022/11/03 03:31:58;;;;;;;30.90;22.10;;;;;;;8.99;91.26;99795.01;1649092;85;21115;-83
2022/11/03 03:34:26;;;;;;;33.88;21.77;;;;;;;8.98;91.43;99790.21;1651156;85;21620;-83
2022/11/03 03:36:55;;;;;;;31.23;20.30;;;;;;;8.92;91.87;99783.36;1675056;84;21016;-84
2022/11/03 03:39:22;;;;;;;28.45;19.87;;;;;;;8.84;92.30;99782.31;1677734;83;21370;-83
2022/11/03 03:41:48;;;;;;;29.87;21.25;;;;;;;8.89;92.47;99783.19;1677255;84;21032;-83
2022/11/03 03:44:16;;;;;;;32.53;21.75;;;;;;;8.93;92.69;99783.72;1691519;84;21148;-82
2022/11/03 03:46:46;;;;;;;30.05;20.20;;;;;;;8.84;93.07;99780.98;1678855;84;21068;-84
2022/11/03 03:49:13;;;;;;;28.20;19.45;;;;;;;8.80;93.46;99780.14;1684294;84;21080;-83
2022/11/03 03:51:39;;;;;;;31.57;20.62;;;;;;;8.85;93.46;99777.37;1679602;80;21032;-89
2022/11/03 03:54:06;;;;;;;28.98;20.65;;;;;;;8.87;93.71;99781.70;1681129;81;21278;-90
2022/11/03 03:56:43;;;;;;;27.30;18.35;;;;;;;8.81;94.02;99776.02;1651628;84;20977;-87
2022/11/03 03:59:10;;;;;;;24.50;18.12;;;;;;;8.79;94.32;99775.34;1705205;84;20973;-87
2022/11/03 04:01:37;;;;;;;22.82;17.07;;;;;;;8.86;94.37;99776.87;1697832;84;21532;-85
2022/11/03 04:04:04;;;;;;;22.82;17.05;;;;;;;8.80;94.71;99770.38;1676457;84;21505;-84
2022/11/03 04:06:30;;;;;;;22.30;16.17;;;;;;;8.73;95.05;99773.33;1685114;84;21505;-86
2022/11/03 04:08:59;;;;;;;23.00;16.07;;;;;;;8.74;95.09;99771.00;1677249;84;22161;-86
2022/11/03 04:22:15;;;;;;;22.48;15.78;;;;;;;8.88;95.14;99758.17;1693940;84;21141;-84
2022/11/03 04:24:49;;;;;;;22.42;18.27;;;;;;;8.92;95.19;99759.52;1682003;84;21055;-83
2022/11/03 04:27:35;;;;;;;26.42;17.05;;;;;;;8.91;95.42;99761.84;1677281;84;21493;-83
2022/11/03 04:30:18;;;;;;;23.85;16.10;;;;;;;8.90;95.59;99753.55;1676401;84;21321;-84
2022/11/03 04:32:47;;;;;;;21.35;15.23;;;;;;;8.96;95.36;99760.39;1678356;84;21032;-81
2022/11/03 04:35:24;;;;;;;22.42;15.50;;;;;;;9.04;95.29;99763.08;1675776;85;21840;-82
2022/11/03 04:38:02;;;;;;;19.32;14.18;;;;;;;9.00;95.34;99758.23;1677127;84;21044;-83
2022/11/03 04:40:29;;;;;;;17.67;13.20;;;;;;;8.94;95.64;99758.86;1675682;84;21010;-81
2022/11/03 04:42:56;;;;;;;18.12;14.30;;;;;;;8.97;95.57;99758.56;1686110;83;21059;-82
2022/11/03 04:45:27;;;;;;;19.77;14.03;;;;;;;9.02;95.57;99760.23;1639300;87;20996;-80
2022/11/03 04:47:54;;;;;;;16.75;13.40;;;;;;;8.97;95.75;99754.09;1652957;85;22085;-83
2022/11/03 04:50:22;;;;;;;19.90;14.58;;;;;;;8.89;96.10;99759.84;1647182;87;21014;-83
2022/11/03 04:52:59;;;;;;;18.20;12.15;;;;;;;8.89;96.35;99755.88;1658769;85;20964;-84
2022/11/03 04:55:25;;;;;;;20.45;13.13;;;;;;;8.94;96.43;99756.22;1651248;85;21041;-85
2022/11/03 04:58:01;;;;;;;16.35;12.78;;;;;;;8.92;96.93;99752.89;1685708;84;21008;-88
2022/11/03 05:00:27;;;;;;;18.40;11.83;;;;;;;8.88;97.60;99760.32;1711422;80;22908;-86
2022/11/03 05:02:55;;;;;;;18.45;13.53;;;;;;;8.92;97.65;99758.19;1686480;81;21025;-86
2022/11/03 05:05:23;;;;;;;17.12;12.70;;;;;;;9.02;97.42;99752.28;1680966;84;21063;-86
2022/11/03 05:07:53;;;;;;;18.90;12.80;;;;;;;9.00;97.45;99756.44;1681245;85;21009;-86
2022/11/03 05:10:27;;;;;;;15.90;11.53;;;;;;;8.93;97.67;99755.39;1649026;85;21091;-86
2022/11/03 05:12:54;;;;;;;13.43;10.75;;;;;;;8.96;97.88;99759.53;1644750;86;21165;-85
2022/11/03 05:15:37;;;;;;;14.23;10.93;;;;;;;9.09;97.92;99764.42;1645109;85;21594;-85
2022/11/03 05:18:23;;;;;;;15.25;10.80;;;;;;;9.13;98.26;99758.63;1602953;87;21132;-83
2022/11/03 05:20:59;;;;;;;15.20;10.80;;;;;;;9.13;98.69;99765.26;1670275;85;21060;-81
2022/11/03 05:23:26;;;;;;;13.13;9.95;;;;;;;9.19;98.64;99765.13;1661222;85;21108;-82
2022/11/03 05:25:53;;;;;;;13.70;10.58;;;;;;;9.31;98.47;99762.55;1646187;85;21574;-83
2022/11/03 05:28:33;;;;;;;13.45;10.98;;;;;;;9.34;98.43;99768.83;1645217;82;21090;-81
2022/11/03 05:31:00;;;;;;;13.65;10.45;;;;;;;9.31;98.39;99766.99;1596844;88;21120;-85
2022/11/03 05:33:36;;;;;;;14.93;10.58;;;;;;;9.35;98.52;99767.86;1647475;85;21142;-85
2022/11/03 05:36:13;;;;;;;15.88;10.80;;;;;;;9.50;98.42;99777.34;1651697;85;21086;-85
2022/11/03 05:38:41;;;;;;;14.65;11.33;;;;;;;9.54;98.29;99777.86;1667207;83;21134;-88
2022/11/03 05:41:22;;;;;;;13.50;10.93;;;;;;;9.55;98.42;99774.23;1677279;84;21447;-90
2022/11/03 05:44:00;;;;;;;15.18;9.68;;;;;;;9.65;98.35;99774.91;1660432;81;21011;-86
2022/11/03 05:46:31;;;;;;;12.80;9.38;;;;;;;9.85;98.04;99775.48;1592253;88;21131;-88
2022/11/03 05:49:01;;;;;;;11.18;9.45;;;;;;;9.92;98.14;99771.16;1628331;87;21020;-86
2022/11/03 05:51:33;;;;;;;11.25;8.35;;;;;;;9.94;97.82;99777.13;1667560;85;21158;-84
2022/11/03 05:54:02;;;;;;;11.10;8.78;;;;;;;9.99;97.29;99781.47;1652201;85;21771;-84
2022/11/03 05:56:29;;;;;;;10.93;9.25;;;;;;;10.15;96.99;99778.50;1655787;85;21072;-86
2022/11/03 05:58:56;;;;;;;11.18;8.88;;;;;;;10.14;96.56;99775.03;1661822;85;21099;-86
2022/11/03 06:01:29;;;;;;;10.55;8.55;;;;;;;10.11;96.43;99775.84;1663919;81;21524;-82
2022/11/03 06:03:59;;;;;;;8.08;7.28;;;;;;;10.10;96.05;99775.03;1652370;85;21969;-86
2022/11/03 06:06:29;;;;;;;10.48;8.28;;;;;;;10.17;96.04;99776.52;1650309;85;21673;-82
2022/11/03 06:08:56;;;;;;;9.00;7.35;;;;;;;10.19;96.01;99781.16;1664509;85;21082;-83
2022/11/03 06:11:29;;;;;;;8.88;6.92;;;;;;;10.11;96.05;99775.34;1665664;85;21050;-87
2022/11/03 06:13:57;;;;;;;10.30;7.10;;;;;;;10.09;96.03;99782.64;1636349;85;21097;-88
2022/11/03 06:16:38;;;;;;;8.08;6.70;;;;;;;10.18;96.26;99782.17;1670598;84;21171;-85
2022/11/03 06:19:20;;;;;;;8.18;6.90;;;;;;;10.18;96.29;99779.01;1648763;85;21074;-87
2022/11/03 06:21:49;;;;;;;8.63;6.65;;;;;;;10.15;96.39;99779.33;1647710;85;21024;-87
2022/11/03 06:24:15;;;;;;;9.58;6.75;;;;;;;10.17;96.25;99786.63;1651359;85;21084;-83
2022/11/03 06:26:42;;;;;;;7.60;6.20;;;;;;;10.28;96.22;99787.33;1674759;85;20983;-80
2022/11/03 06:29:15;;;;;;;8.25;6.67;;;;;;;10.28;96.03;99790.80;1664204;84;21089;-78
2022/11/03 06:31:43;;;;;;;7.55;5.97;;;;;;;10.21;96.17;99791.12;1679324;84;21103;-80
2022/11/03 06:34:51;;;;;;;7.50;5.50;;;;;;;10.20;96.33;99791.62;1674055;84;21040;-79
2022/11/03 06:37:27;;;;;;;8.65;6.70;;;;;;;10.28;96.36;99798.77;1664192;84;21052;-80
2022/11/03 06:39:59;;;;;;;7.85;6.30;;;;;;;10.23;96.58;99789.13;1688231;84;21040;-81
2022/11/03 06:42:25;;;;;;;10.72;7.12;;;;;;;10.17;97.00;99788.46;1676385;84;21924;-79
2022/11/03 06:44:52;;;;;;;7.95;6.12;;;;;;;10.22;97.09;99779.52;1683186;84;21088;-80
2022/11/03 06:47:27;;;;;;;8.38;6.45;;;;;;;10.30;96.71;99780.02;1673614;85;21533;-78
2022/11/03 06:49:59;;;;;;;9.43;7.35;;;;;;;10.33;96.88;99777.05;1670842;84;21111;-78
2022/11/03 06:52:32;;;;;;;9.03;6.90;;;;;;;10.34;97.31;99774.23;1670561;86;21109;-79
2022/11/03 06:55:10;;;;;;;11.63;7.95;;;;;;;10.31;97.27;99786.50;1685557;84;21126;-77
2022/11/03 06:57:38;;;;;;;11.83;8.60;;;;;;;10.37;96.94;99782.36;1683819;84;21065;-80
2022/11/03 07:00:19;;;;;;;10.93;8.65;;;;;;;10.42;96.97;99776.88;1674971;84;21080;-79
2022/11/03 07:03:15;;;;;;;11.65;8.65;;;;;;;10.42;97.35;99774.22;1667687;85;21128;-79
2022/11/03 07:05:41;;;;;;;12.85;9.08;;;;;;;10.40;97.27;99774.89;1673722;84;21126;-78
2022/11/03 07:08:33;;;;;;;12.47;9.60;;;;;;;10.45;97.02;99768.25;1673307;84;21747;-78
2022/11/03 07:11:13;;;;;;;13.83;11.43;;;;;;;10.52;96.87;99770.58;1668413;84;21022;-79
2022/11/03 07:13:39;;;;;;;12.65;11.20;;;;;;;10.52;97.27;99777.22;1671060;84;21024;-80
2022/11/03 07:16:30;;;;;;;15.43;11.00;;;;;;;10.52;97.56;99783.86;1686881;84;21055;-81
2022/11/03 07:18:59;;;;;;;12.33;10.48;;;;;;;10.56;97.27;99771.39;1671890;85;21028;-80
2022/11/03 07:21:37;;;;;;;12.80;11.03;;;;;;;10.65;96.99;99776.72;1672170;84;21894;-82
2022/11/03 07:24:14;;;;;;;17.75;12.00;;;;;;;10.64;97.19;99775.86;1637480;87;21073;-80
2022/11/03 07:26:42;;;;;;;12.50;11.18;;;;;;;10.57;97.31;99784.20;1618277;88;21048;-82
2022/11/03 07:29:24;;;;;;;13.95;11.00;;;;;;;10.58;97.44;99785.33;1677451;84;21057;-84
2022/11/03 07:31:51;;;;;;;14.00;11.08;;;;;;;10.65;97.18;99783.36;1655501;84;21065;-85
2022/11/03 07:34:23;;;;;;;19.95;12.70;;;;;;;10.64;97.51;99791.80;1679942;83;21092;-82
2022/11/03 07:36:50;;;;;;;14.15;10.63;;;;;;;10.61;97.77;99779.70;1670205;84;20978;-85
2022/11/03 07:39:19;;;;;;;14.50;10.60;;;;;;;10.68;97.86;99783.01;1677686;84;21092;-82
2022/11/03 07:41:47;;;;;;;15.45;10.88;;;;;;;10.75;97.63;99779.52;1650236;85;21123;-86
2022/11/03 07:44:19;;;;;;;14.90;11.43;;;;;;;10.73;97.77;99778.85;1672016;83;21327;-84
2022/11/03 07:46:46;;;;;;;15.13;11.00;;;;;;;10.67;98.22;99782.70;1672368;84;21364;-83
2022/11/03 07:49:28;;;;;;;16.25;10.93;;;;;;;10.70;97.98;99785.00;1674482;84;21118;-84
2022/11/03 07:52:44;;;;;;;15.80;10.88;;;;;;;10.78;98.02;99777.86;1861405;75;28576;-83
2022/11/03 07:55:11;;;;;;;13.65;9.95;;;;;;;10.71;98.32;99782.69;1822397;76;21054;-85
2022/11/03 07:57:38;;;;;;;15.30;10.70;;;;;;;10.71;98.20;99776.05;1811942;77;22222;-84
2022/11/03 08:00:09;;;;;;;16.97;10.72;;;;;;;10.78;98.21;99770.39;1818676;78;20947;-85
2022/11/03 08:02:49;;;;;;;15.72;10.05;;;;;;;10.79;98.36;99772.03;1819710;77;21116;-83
2022/11/03 08:05:17;;;;;;;12.60;9.60;;;;;;;10.78;98.77;99760.59;1781512;78;21687;-87
2022/11/03 08:07:46;;;;;;;11.70;9.03;;;;;;;10.91;98.60;99756.56;1799807;77;20983;-85
2022/11/03 08:10:13;;;;;;;14.13;9.70;;;;;;;11.05;98.26;99756.36;1764564;80;21094;-86
2022/11/03 08:12:42;;;;;;;13.83;9.70;;;;;;;11.12;98.45;99757.34;1799004;78;21479;-83
2022/11/03 08:15:10;;;;;;;11.55;7.97;;;;;;;11.17;98.19;99758.48;1795791;78;21018;-83
2022/11/03 08:17:39;;;;;;;10.40;9.03;;;;;;;11.31;97.79;99758.27;1807208;77;21041;-83
2022/11/03 08:20:11;;;;;;;13.43;10.15;;;;;;;11.43;97.24;99754.72;1805524;77;21069;-83
2022/11/03 08:22:39;;;;;;;13.78;9.90;;;;;;;11.45;97.09;99753.22;1800597;77;21139;-84
2022/11/03 08:25:09;;;;;;;16.50;10.35;;;;;;;11.45;96.91;99755.38;1806476;77;21097;-85
2022/11/03 08:27:37;;;;;;;12.35;9.45;;;;;;;11.53;96.24;99753.17;1803152;78;21030;-85
2022/11/03 08:30:09;;;;;;;13.22;9.78;;;;;;;11.59;95.55;99751.99;1797560;77;21034;-84
2022/11/03 08:32:33;;;;;;;15.03;10.08;;;;;;;11.55;95.38;99756.48;1780897;78;21105;-84
2022/11/03 08:35:02;;;;;;;12.40;8.70;;;;;;;11.49;95.35;99755.86;1813995;77;21201;-86
2022/11/03 08:37:30;;;;;;;12.65;9.88;;;;;;;11.52;94.90;99750.20;1758201;80;21544;-84
2022/11/03 08:39:56;;;;;;;11.00;9.20;;;;;;;11.55;93.92;99749.84;1790467;78;21052;-84
2022/11/03 08:42:23;;;;;;;12.95;9.50;;;;;;;11.45;94.29;99756.70;1824614;76;20981;-85
2022/11/03 08:44:50;;;;;;;12.28;9.50;;;;;;;11.35;94.63;99750.77;1809664;76;21089;-85
2022/11/03 08:47:17;;;;;;;12.90;9.15;;;;;;;11.35;94.58;99744.13;1830752;78;21191;-84
2022/11/03 08:49:44;;;;;;;13.70;9.63;;;;;;;11.41;94.43;99748.27;1826055;76;20997;-83
2022/11/03 08:52:15;;;;;;;12.78;9.63;;;;;;;11.36;94.57;99741.30;1821492;76;21510;-83
2022/11/03 08:54:43;;;;;;;11.15;9.08;;;;;;;11.26;94.86;99742.49;1802649;78;21079;-85
2022/11/03 08:57:12;;;;;;;10.70;8.53;;;;;;;11.26;95.33;99732.70;1833386;78;20980;-85
2022/11/03 08:59:38;;;;;;;11.20;8.18;;;;;;;11.34;95.21;99731.84;1814910;76;21777;-85
2022/11/03 09:02:05;;;;;;;9.83;7.90;;;;;;;11.33;95.16;99739.48;1817877;76;21058;-83
2022/11/03 09:04:31;;;;;;;11.18;8.30;;;;;;;11.25;95.36;99732.88;1810406;76;21090;-83
2022/11/03 09:06:59;;;;;;;10.32;7.40;;;;;;;11.30;95.68;99731.83;1805647;76;21063;-85
2022/11/03 09:09:25;;;;;;;10.93;7.70;;;;;;;11.38;95.11;99735.30;1809701;76;20991;-87
2022/11/03 09:11:51;;;;;;;10.30;8.68;;;;;;;11.36;95.01;99735.98;1840905;76;21174;-87
2022/11/03 09:14:20;;;;;;;9.55;7.60;;;;;;;11.33;94.98;99739.48;1838539;76;20967;-88
2022/11/03 09:16:46;;;;;;;9.13;6.67;;;;;;;11.30;94.79;99727.36;1811242;78;20996;-86
2022/11/03 09:19:14;;;;;;;8.10;6.50;;;;;;;11.37;94.31;99728.81;1814956;76;20984;-87
2022/11/03 09:21:47;;;;;;;8.88;6.53;;;;;;;11.31;94.64;99729.01;1803908;77;20932;-88
2022/11/03 09:27:32;;;;;;;8.23;5.87;;;;;;;11.24;95.31;99731.20;1700353;82;21086;-90
2022/11/03 09:30:05;;;;;;;6.58;5.47;;;;;;;11.30;95.19;99727.84;1811398;76;20956;-89
2022/11/03 09:32:33;;;;;;;6.37;5.30;;;;;;;11.22;95.26;99723.39;1803126;78;21575;-87
2022/11/03 09:37:38;;;;;;;;;;;;;;;11.28;95.16;99725.86;1668138;84;22982;-88
2022/11/03 09:40:17;;;;;;;6.72;5.67;;;;;;;11.21;95.27;99727.89;1623226;87;20149;-88
2022/11/03 09:43:01;;;;;;;;;;;;;;;;;;;;;
2022/11/03 09:45:29;;;;;;;6.12;5.50;;;;;;;11.11;95.71;99719.30;1593855;87;21109;-92
2022/11/03 09:50:48;;;;;;;7.70;5.60;;;;;;;11.09;96.02;99727.95;1744905;79;21073;-91
2022/11/03 09:53:18;;;;;;;7.03;6.22;;;;;;;11.09;96.07;99728.45;1744177;80;21105;-87
2022/11/03 09:55:58;;;;;;;7.28;5.67;;;;;;;11.18;96.05;99728.25;1750773;80;20990;-90
2022/11/03 09:58:29;;;;;;;8.70;6.00;;;;;;;11.20;96.23;99735.55;1707948;82;21086;-90
2022/11/03 10:01:00;;;;;;;8.63;5.87;;;;;;;11.19;96.65;99737.05;1689219;83;21108;-90
2022/11/03 10:03:27;;;;;;;7.35;5.17;;;;;;;11.26;96.79;99734.52;1736218;81;21084;-89
2022/11/03 10:05:55;;;;;;;8.20;4.75;;;;;;;11.32;96.20;99733.34;1744197;80;20955;-91
2022/11/03 10:08:28;;;;;;;5.95;4.30;;;;;;;11.26;96.37;99734.04;1734942;79;21081;-88
2022/11/03 10:10:57;;;;;;;9.73;4.95;;;;;;;11.14;96.69;99733.56;1722249;80;21018;-90
2022/11/03 10:13:36;;;;;;;2.52;2.10;;;;;;;11.16;97.42;99733.39;1739434;81;21024;-89
2022/11/03 10:16:07;;;;;;;4.72;2.50;;;;;;;11.24;97.45;99735.19;1740752;81;20995;-91
2022/11/03 10:18:35;;;;;;;2.87;2.45;;;;;;;11.20;97.11;99733.38;1744610;79;20919;-87
2022/11/03 10:21:07;;;;;;;3.55;2.35;;;;;;;11.14;97.33;99727.42;1759968;79;21010;-86
2022/11/03 10:23:34;;;;;;;4.28;2.00;;;;;;;11.18;97.07;99725.59;1748647;80;20993;-85
2022/11/03 10:26:15;;;;;;;3.98;2.58;;;;;;;11.24;96.41;99731.20;1735832;81;21041;-85
2022/11/03 10:28:59;;;;;;;3.98;2.00;;;;;;;11.20;96.35;99736.03;1736785;81;21058;-85
2022/11/03 10:31:40;;;;;;;3.77;2.10;;;;;;;11.12;96.49;99733.41;1758768;81;21022;-87
2022/11/03 10:34:36;;;;;;;2.98;2.12;;;;;;;11.09;95.71;99737.25;1737995;80;21038;-86
2022/11/03 10:37:25;;;;;;;7.55;2.77;;;;;;;11.14;95.77;99740.72;1733524;81;21521;-85
2022/11/03 10:39:53;;;;;;;4.45;2.98;;;;;;;11.09;95.48;99737.25;1724198;80;21033;-86
2022/11/03 10:42:31;;;;;;;2.70;2.00;;;;;;;10.97;95.79;99738.12;1734202;81;21803;-86
2022/11/03 10:45:17;;;;;;;3.27;1.95;;;;;;;10.99;96.20;99741.91;1748989;81;21018;-87
2022/11/03 10:47:44;;;;;;;4.60;1.92;;;;;;;11.04;95.35;99739.59;1745842;81;21070;-85
2022/11/03 10:50:25;;;;;;;3.10;2.12;;;;;;;10.95;95.23;99748.09;1698980;82;21025;-84
2022/11/03 10:52:53;;;;;;;6.62;1.82;;;;;;;10.82;95.66;99740.64;1701008;83;21022;-87
2022/11/03 10:55:21;;;;;;;6.00;2.05;;;;;;;10.81;95.86;99743.47;1709783;83;21223;-86
2022/11/03 10:57:48;;;;;;;1.55;1.40;;;;;;;10.78;95.49;99741.98;1683527;83;21097;-87
2022/11/03 11:00:18;;;;;;;2.30;2.10;;;;;;;10.73;95.96;99745.64;1698243;83;21014;-86
2022/11/03 11:02:46;;;;;;;4.28;2.27;;;;;;;10.62;95.90;99745.51;1693952;83;20978;-84
2022/11/03 11:05:19;;;;;;;5.90;2.20;;;;;;;10.56;95.93;99742.67;1702596;83;20988;-86
2022/11/03 11:07:46;;;;;;;4.20;2.17;;;;;;;10.57;95.95;99741.69;1707689;83;21482;-87
2022/11/03 11:10:17;;;;;;;5.67;2.92;;;;;;;10.54;96.69;99736.20;1709957;83;21084;-86
2022/11/03 11:13:08;;;;;;;4.05;2.55;;;;;;;10.50;97.41;99738.04;1699887;83;21037;-84
2022/11/03 11:15:40;;;;;;;3.50;1.80;;;;;;;10.53;97.97;99730.57;1697259;83;21089;-85
2022/11/03 11:18:07;;;;;;;3.30;2.40;;;;;;;10.63;97.83;99737.85;1707478;83;21017;-85
2022/11/03 11:20:37;;;;;;;2.10;1.90;;;;;;;10.57;97.80;99732.39;1711201;83;21311;-85
2022/11/03 11:23:25;;;;;;;2.25;1.77;;;;;;;10.48;98.50;99736.05;1664579;86;21004;-86
2022/11/03 11:26:28;;;;;;;3.67;1.52;;;;;;;10.53;98.98;99733.73;1620137;87;21121;-84
2022/11/03 11:29:14;;;;;;;2.58;1.77;;;;;;;10.61;98.72;99738.52;1632678;88;21514;-81
2022/11/03 11:31:43;;;;;;;4.03;1.98;;;;;;;10.49;98.44;99737.22;1649054;85;21089;-85
2022/11/03 11:34:22;;;;;;;2.90;1.90;;;;;;;10.50;98.68;99734.06;1663445;84;21243;-84
2022/11/03 11:37:01;;;;;;;2.87;2.00;;;;;;;10.53;98.67;99729.24;1661033;84;21014;-83
2022/11/03 11:39:34;;;;;;;2.90;1.70;;;;;;;10.53;99.24;99731.90;1665947;85;21039;-84
2022/11/03 11:42:18;;;;;;;3.90;1.72;;;;;;;10.54;99.65;99732.72;1628331;86;21526;-85
2022/11/03 11:44:56;;;;;;;3.35;1.72;;;;;;;10.65;99.50;99730.23;1665397;86;21066;-83
2022/11/03 11:47:42;;;;;;;4.35;2.17;;;;;;;10.66;99.03;99731.87;1665733;85;21248;-83
2022/11/03 11:50:20;;;;;;;3.37;2.00;;;;;;;10.63;99.20;99730.39;1670932;83;21063;-82
2022/11/03 11:53:00;;;;;;;3.77;2.02;;;;;;;10.71;98.70;99729.55;1677314;84;21045;-81
2022/11/03 11:55:40;;;;;;;2.30;1.90;;;;;;;10.71;98.46;99733.02;1660247;85;20942;-85
2022/11/03 11:58:23;;;;;;;2.75;2.37;;;;;;;10.72;99.00;99732.04;1689897;82;21021;-87
2022/11/03 12:00:57;;;;;;;3.53;2.80;;;;;;;10.86;98.91;99731.84;1684023;83;21219;-88
2022/11/03 12:03:44;;;;;;;4.20;2.50;;;;;;;10.93;98.30;99738.61;1665080;84;20994;-84
2022/11/03 12:06:18;;;;;;;3.65;2.52;;;;;;;10.92;98.13;99734.31;1617727;85;21794;-86
2022/11/03 12:08:50;;;;;;;3.22;2.12;;;;;;;10.95;97.59;99730.82;1683493;84;21047;-87
2022/11/03 12:11:42;;;;;;;;;;;;;;;10.96;97.37;99732.46;1595569;86;21154;-83
2022/11/03 12:14:36;;;;;;;2.35;2.08;;;;;;;10.90;97.44;99728.34;1606586;88;20198;-87
2022/11/03 12:17:28;;;;;;;2.83;2.50;;;;;;;10.94;96.90;99729.66;1635836;86;21073;-86
2022/11/03 12:20:05;;;;;;;3.50;2.58;;;;;;;10.93;96.82;99730.16;1674051;84;21095;-85
2022/11/03 12:22:41;;;;;;;2.60;2.33;;;;;;;10.93;97.06;99730.64;1669744;85;21067;-86
2022/11/03 12:25:39;;;;;;;2.80;2.25;;;;;;;11.02;96.60;99725.64;1685617;83;20996;-85
2022/11/03 12:28:07;;;;;;;3.17;2.25;;;;;;;11.04;96.37;99731.61;1686682;83;21088;-87
2022/11/03 12:31:02;;;;;;;2.37;1.87;;;;;;;11.01;96.44;99725.33;1657408;82;20892;-88